Tugidak — WDG3411 — position and weather

sailwx.info

Track history (hours):
 
Tides and Currents Weather Stations Pressure Air Temp Water Temp Dewpoint Dewpoint Depression Visibility Wind Speed Wind Dir Waves Ship Positions

Tugidak

Owner: F/V Tugidak, Seattle, WA. More information available from US FCC via Universal Licensing System and Coast Guard Vessel Documentation Center.

Last reported at 2018-Apr-08 01:12 UTC. Time now 2018-Apr-19 23:17 UTC.
Position N 54°36' W 130°44'.
Warning: this ship's position is 11 days out of date.

Length 40 m; draft 3 m.

Type: Ship. MMSI: 367525770.

Date/timePositionNaut miles runAvg speedWind from/ knotsBaromVisibWave heightAir tempDewpointWater temp
2018-Apr-08 01:12N 54°36' W 130°44'4 9.2
2018-Apr-08 00:44N 54°32' W 130°42'2 8.8
2018-Apr-08 00:28N 54°30' W 130°41'4 9.3
2018-Apr-08 00:00N 54°26' W 130°38'5 9.9
2018-Apr-07 23:30N 54°21' W 130°36'5 9.9
2018-Apr-07 23:00N 54°16' W 130°33'510.4
2018-Apr-07 22:30N 54°12' W 130°28'510.5
2018-Apr-07 22:00N 54°08' W 130°23'510.5
2018-Apr-07 21:30N 54°04' W 130°17'510.2
2018-Apr-07 21:00N 53°59' W 130°12'510.0
2018-Apr-07 20:30N 53°55' W 130°10'510.2
2018-Apr-07 20:00N 53°51' W 130°03'100 8.5
2018-Apr-07 08:10N 52°29' W 128°28'2 8.9
2018-Apr-07 07:57N 52°27' W 128°28'4 8.6
2018-Apr-07 07:30N 52°24' W 128°29'5 9.2
2018-Apr-07 06:59N 52°19' W 128°30'5 9.5
2018-Apr-07 06:30N 52°16' W 128°24'610.4
2018-Apr-07 05:57N 52°14' W 128°15'4 9.7
2018-Apr-07 05:30N 52°13' W 128°08'4 8.4
2018-Apr-07 04:59N 52°09' W 128°08'4 9.3
2018-Apr-07 04:30N 52°05' W 128°06'510.4
2018-Apr-07 04:00N 52°04' W 127°57'4 8.6
2018-Apr-07 03:30N 52°00' W 127°56'5 8.8
2018-Apr-07 02:59N 51°56' W 127°56'4 9.4
2018-Apr-07 02:30N 51°51' W 127°56'5 9.8
2018-Apr-07 02:00N 51°46' W 127°55'510.0
2018-Apr-07 01:30N 51°41' W 127°54'510.1
2018-Apr-07 01:00N 51°36' W 127°54'5 9.7
2018-Apr-07 00:29N 51°31' W 127°53'18 9.8
2018-Apr-06 22:40N 51°14' W 127°51'210.2
2018-Apr-06 22:30N 51°12' W 127°50'5 9.8
2018-Apr-06 22:00N 51°07' W 127°47'510.3
2018-Apr-06 21:30N 51°04' W 127°41'510.1
2018-Apr-06 20:59N 51°00' W 127°35'510.1
2018-Apr-06 20:30N 50°57' W 127°29'510.3
2018-Apr-06 20:00N 50°54' W 127°23'510.0
2018-Apr-06 19:28N 50°51' W 127°16'510.1
2018-Apr-06 19:00N 50°49' W 127°10'72 9.6
2018-Apr-06 11:32N 50°20' W 125°26'310.1
2018-Apr-06 11:13N 50°17' W 125°24'310.2
2018-Apr-06 10:56N 50°14' W 125°23'410.6
2018-Apr-06 10:30N 50°10' W 125°22'510.9
2018-Apr-06 10:00N 50°05' W 125°17'611.8
2018-Apr-06 09:30N 50°00' W 125°13'611.0
2018-Apr-06 09:00N 49°56' W 125°06'5 9.9
2018-Apr-06 08:30N 49°52' W 125°01'5 9.9
2018-Apr-06 07:57N 49°48' W 124°56'510.2
2018-Apr-06 07:26N 49°44' W 124°51'4 9.9
2018-Apr-06 07:00N 49°41' W 124°46'5510.0
2018-Apr-06 01:31N 49°10' W 123°36'210.4
2018-Apr-06 01:19N 49°09' W 123°34'510.7
2018-Apr-06 00:52N 49°07' W 123°27'610.7
2018-Apr-06 00:20N 49°03' W 123°20'410.2
2018-Apr-05 23:58N 49°01' W 123°16'6 9.9
2018-Apr-05 23:20N 48°57' W 123°09'23 9.1
2018-Apr-05 20:47N 48°41' W 122°42'3 7.7
2018-Apr-05 20:26N 48°39' W 122°43'4 6.7
2018-Apr-05 19:49N 48°35' W 122°45'2 6.6
2018-Apr-05 19:28N 48°32' W 122°45'36 8.5
2018-Apr-05 15:12N 47°57' W 122°32'210.0
2018-Apr-05 15:00N 47°56' W 122°29'5 9.7
2018-Apr-05 14:31N 47°51' W 122°27'5 9.9
2018-Apr-05 14:00N 47°47' W 122°25'5 9.5
2018-Apr-05 13:31N 47°42' W 122°26'  
Track history (hours):
 
Tides and Currents Weather Stations Pressure Air Temp Water Temp Dewpoint Dewpoint Depression Visibility Wind Speed Wind Dir Waves Ship Positions

Tugidak

Owner: F/V Tugidak, Seattle, WA. More information available from US FCC via Universal Licensing System and Coast Guard Vessel Documentation Center.

Last reported at 2018-Apr-08 01:12 UTC. Time now 2018-Apr-19 23:17 UTC.
Position N 54°36' W 130°44'.
Warning: this ship's position is 11 days out of date.

Length 40 m; draft 3 m.

Type: Ship. MMSI: 367525770.

Date/timePositionNaut miles runAvg speedWind from/ knotsBaromVisibWave heightAir tempDewpointWater temp
2018-Apr-08 01:12N 54°36' W 130°44'4 9.2
2018-Apr-08 00:44N 54°32' W 130°42'2 8.8
2018-Apr-08 00:28N 54°30' W 130°41'4 9.3
2018-Apr-08 00:00N 54°26' W 130°38'5 9.9
2018-Apr-07 23:30N 54°21' W 130°36'5 9.9
2018-Apr-07 23:00N 54°16' W 130°33'510.4
2018-Apr-07 22:30N 54°12' W 130°28'510.5
2018-Apr-07 22:00N 54°08' W 130°23'510.5
2018-Apr-07 21:30N 54°04' W 130°17'510.2
2018-Apr-07 21:00N 53°59' W 130°12'510.0
2018-Apr-07 20:30N 53°55' W 130°10'510.2
2018-Apr-07 20:00N 53°51' W 130°03'100 8.5
2018-Apr-07 08:10N 52°29' W 128°28'2 8.9
2018-Apr-07 07:57N 52°27' W 128°28'4 8.6
2018-Apr-07 07:30N 52°24' W 128°29'5 9.2
2018-Apr-07 06:59N 52°19' W 128°30'5 9.5
2018-Apr-07 06:30N 52°16' W 128°24'610.4
2018-Apr-07 05:57N 52°14' W 128°15'4 9.7
2018-Apr-07 05:30N 52°13' W 128°08'4 8.4
2018-Apr-07 04:59N 52°09' W 128°08'4 9.3
2018-Apr-07 04:30N 52°05' W 128°06'510.4
2018-Apr-07 04:00N 52°04' W 127°57'4 8.6
2018-Apr-07 03:30N 52°00' W 127°56'5 8.8
2018-Apr-07 02:59N 51°56' W 127°56'4 9.4
2018-Apr-07 02:30N 51°51' W 127°56'5 9.8
2018-Apr-07 02:00N 51°46' W 127°55'510.0
2018-Apr-07 01:30N 51°41' W 127°54'510.1
2018-Apr-07 01:00N 51°36' W 127°54'5 9.7
2018-Apr-07 00:29N 51°31' W 127°53'18 9.8
2018-Apr-06 22:40N 51°14' W 127°51'210.2
2018-Apr-06 22:30N 51°12' W 127°50'5 9.8
2018-Apr-06 22:00N 51°07' W 127°47'510.3
2018-Apr-06 21:30N 51°04' W 127°41'510.1
2018-Apr-06 20:59N 51°00' W 127°35'510.1
2018-Apr-06 20:30N 50°57' W 127°29'510.3
2018-Apr-06 20:00N 50°54' W 127°23'510.0
2018-Apr-06 19:28N 50°51' W 127°16'510.1
2018-Apr-06 19:00N 50°49' W 127°10'72 9.6
2018-Apr-06 11:32N 50°20' W 125°26'310.1
2018-Apr-06 11:13N 50°17' W 125°24'310.2
2018-Apr-06 10:56N 50°14' W 125°23'410.6
2018-Apr-06 10:30N 50°10' W 125°22'510.9
2018-Apr-06 10:00N 50°05' W 125°17'611.8
2018-Apr-06 09:30N 50°00' W 125°13'611.0
2018-Apr-06 09:00N 49°56' W 125°06'5 9.9
2018-Apr-06 08:30N 49°52' W 125°01'5 9.9
2018-Apr-06 07:57N 49°48' W 124°56'510.2
2018-Apr-06 07:26N 49°44' W 124°51'4 9.9
2018-Apr-06 07:00N 49°41' W 124°46'5510.0
2018-Apr-06 01:31N 49°10' W 123°36'210.4
2018-Apr-06 01:19N 49°09' W 123°34'510.7
2018-Apr-06 00:52N 49°07' W 123°27'610.7
2018-Apr-06 00:20N 49°03' W 123°20'410.2
2018-Apr-05 23:58N 49°01' W 123°16'6 9.9
2018-Apr-05 23:20N 48°57' W 123°09'23 9.1
2018-Apr-05 20:47N 48°41' W 122°42'3 7.7
2018-Apr-05 20:26N 48°39' W 122°43'4 6.7
2018-Apr-05 19:49N 48°35' W 122°45'2 6.6
2018-Apr-05 19:28N 48°32' W 122°45'36 8.5
2018-Apr-05 15:12N 47°57' W 122°32'210.0
2018-Apr-05 15:00N 47°56' W 122°29'5 9.7
2018-Apr-05 14:31N 47°51' W 122°27'5 9.9
2018-Apr-05 14:00N 47°47' W 122°25'5 9.5
2018-Apr-05 13:31N 47°42' W 122°26'  

Dump ship's entire track history